Time;durP1;ratioP1;P1;durP2;ratioP2;P2;SDS_P1;SDS_P2;PMS_P1;PMS_P2;Temp;Humidity;BMP_temperature;BMP_pressure;BME280_temperature;BME280_humidity;BME280_pressure;Samples;Min_cycle;Max_cycle;Signal;HPM_P1;HPM_P2
2023/05/27 00:00:17;;;;;;;9.18;3.88;;;;;;;;;;6224621;22;20016;-82
2023/05/27 00:02:43;;;;;;;11.25;4.40;;;;;;;;;;6275123;22;20478;-82
2023/05/27 00:05:09;;;;;;;9.13;3.80;;;;;;;;;;6249608;22;20015;-81
2023/05/27 00:07:35;;;;;;;5.78;3.33;;;;;;;;;;6224514;22;20106;-84
2023/05/27 00:10:01;;;;;;;13.05;3.10;;;;;;;;;;6249662;22;20016;-81
2023/05/27 00:12:28;;;;;;;7.43;3.13;;;;;;;;;;6275057;22;20468;-82
2023/05/27 00:14:54;;;;;;;12.43;3.72;;;;;;;;;;6249407;22;20011;-82
2023/05/27 00:17:20;;;;;;;9.00;3.33;;;;;;;;;;6249606;22;20016;-83
2023/05/27 00:19:49;;;;;;;8.52;3.67;;;;;;;;;;6224465;22;20012;-83
2023/05/27 00:22:16;;;;;;;10.00;3.30;;;;;;;;;;6249444;22;20031;-84
2023/05/27 00:24:42;;;;;;;6.57;3.50;;;;;;;;;;6249410;22;20015;-81
2023/05/27 00:27:08;;;;;;;11.85;4.68;;;;;;;;;;6249340;22;20018;-84
2023/05/27 00:29:34;;;;;;;12.98;3.78;;;;;;;;;;6249842;22;20011;-83
2023/05/27 00:32:04;;;;;;;8.93;5.00;;;;;;;;;;6224272;22;20015;-84
2023/05/27 00:34:30;;;;;;;9.52;4.03;;;;;;;;;;6249422;22;20441;-83
2023/05/27 00:36:56;;;;;;;11.45;4.35;;;;;;;;;;6249346;22;20023;-81
2023/05/27 00:39:22;;;;;;;7.00;4.10;;;;;;;;;;6274864;22;20011;-82
2023/05/27 00:41:50;;;;;;;8.70;3.90;;;;;;;;;;6249348;22;20051;-81
2023/05/27 00:44:16;;;;;;;12.93;4.40;;;;;;;;;;6249118;22;20051;-83
2023/05/27 00:46:42;;;;;;;4.43;2.70;;;;;;;;;;6274677;22;20453;-81
2023/05/27 00:49:08;;;;;;;6.60;3.10;;;;;;;;;;6249317;22;20042;-82
2023/05/27 00:51:35;;;;;;;11.05;3.80;;;;;;;;;;6249232;22;20047;-85
2023/05/27 00:54:01;;;;;;;10.75;4.53;;;;;;;;;;6274698;22;20073;-84
2023/05/27 00:56:27;;;;;;;5.53;3.42;;;;;;;;;;6274482;22;20084;-82
2023/05/27 00:58:53;;;;;;;17.90;4.20;;;;;;;;;;6275571;22;20038;-81
2023/05/27 01:01:19;;;;;;;12.50;3.88;;;;;;;;;;6251365;22;20020;-83
2023/05/27 01:03:47;;;;;;;12.50;3.50;;;;;;;;;;6227083;22;20022;-81
2023/05/27 01:06:19;;;;;;;8.90;3.50;;;;;;;;;;6251217;22;20012;-82
2023/05/27 01:08:52;;;;;;;6.85;3.10;;;;;;;;;;6276777;22;20102;-83
2023/05/27 01:11:23;;;;;;;7.95;2.92;;;7.40;99.90;;;;;;6276827;22;20038;-83
2023/05/27 01:13:58;;;;;;;9.30;3.25;;;7.30;99.90;;;;;;6276798;22;20007;-82
2023/05/27 01:16:25;;;;;;;9.52;3.42;;;;;;;;;;6276292;22;20449;-82
2023/05/27 01:18:53;;;;;;;7.88;2.78;;;;;;;;;;6276836;22;20313;-83
2023/05/27 01:21:24;;;;;;;5.80;2.60;;;7.10;99.90;;;;;;6277224;22;20016;-83
2023/05/27 01:23:51;;;;;;;4.22;2.78;;;7.30;99.90;;;;;;6276808;22;20016;-83
2023/05/27 01:26:17;;;;;;;7.85;3.83;;;;;;;;;;6276585;22;20018;-83
2023/05/27 01:28:43;;;;;;;6.60;2.78;;;;;;;;;;6225950;22;20015;-83
2023/05/27 01:31:12;;;;;;;5.50;3.15;;;;;;;;;;6278567;22;20318;-83
2023/05/27 01:33:41;;;;;;;5.35;2.28;;;;;;;;;;6278259;22;20055;-83
2023/05/27 01:36:10;;;;;;;6.25;1.85;;;;;;;;;;6276378;22;20023;-84
2023/05/27 01:38:37;;;;;;;2.22;1.92;;;;;;;;;;6251082;22;20016;-83
2023/05/27 01:41:03;;;;;;;9.48;2.47;;;;;;;;;;6276565;22;20016;-83
2023/05/27 01:43:29;;;;;;;5.78;2.22;;;;;;;;;;6276523;22;20026;-83
2023/05/27 01:45:56;;;;;;;12.20;3.80;;;;;;;;;;6250993;22;20061;-83
2023/05/27 01:48:22;;;;;;;7.25;3.67;;;;;;;;;;6251469;22;20026;-82
2023/05/27 01:50:48;;;;;;;10.45;3.83;;;;;;;;;;6252619;22;20016;-83
2023/05/27 01:53:14;;;;;;;19.77;5.55;;;;;;;;;;6254201;22;20016;-83
2023/05/27 01:55:40;;;;;;;8.38;3.97;;;;;;;;;;6252065;22;20050;-83
2023/05/27 01:58:06;;;;;;;9.13;4.07;;;;;;;;;;6228374;22;20020;-84
2023/05/27 02:00:32;;;;;;;6.75;3.92;;;;;;;;;;6252797;22;20035;-83
2023/05/27 02:02:58;;;;;;;11.80;4.22;;;;;;;;;;6225942;22;20445;-82
2023/05/27 02:05:24;;;;;;;15.10;3.50;;;;;;;;;;6225871;22;20101;-83
2023/05/27 02:07:50;;;;;;;8.68;4.40;;;;;;;;;;6250766;22;20012;-83
2023/05/27 02:10:16;;;;;;;8.13;3.65;;;;;;;;;;6276105;22;20020;-83
2023/05/27 02:12:42;;;;;;;9.65;3.65;;;;;;;;;;6250845;22;20683;-83
2023/05/27 02:15:09;;;;;;;6.72;3.08;;;;;;;;;;6276349;22;20026;-83
2023/05/27 02:17:35;;;;;;;3.35;2.15;;;;;;;;;;6250790;22;20095;-81
2023/05/27 02:20:01;;;;;;;9.05;2.17;;;;;;;;;;6276760;22;20018;-82
2023/05/27 02:22:27;;;;;;;5.78;2.78;;;;;;;;;;6250633;22;20020;-81
2023/05/27 02:24:53;;;;;;;13.82;3.53;;;;;;;;;;6250705;22;20034;-82
2023/05/27 02:27:20;;;;;;;4.88;3.58;;;;;;;;;;6276121;22;20020;-83
2023/05/27 02:29:46;;;;;;;10.93;4.05;;;;;;;;;;6250513;22;20011;-83
2023/05/27 02:32:12;;;;;;;5.70;3.15;;;;;;;;;;6250702;22;20522;-83
2023/05/27 02:34:39;;;;;;;11.13;3.63;;;;;;;;;;6250755;22;20105;-83
2023/05/27 02:37:05;;;;;;;5.57;3.05;;;;;;;;;;6250280;22;20016;-82
2023/05/27 02:39:31;;;;;;;10.60;3.97;;;;;;;;;;6250441;22;20012;-82
2023/05/27 02:41:57;;;;;;;15.35;4.22;;;;;;;;;;6250367;22;20452;-83
2023/05/27 02:44:23;;;;;;;10.35;4.38;;;;;;;;;;6225089;22;20066;-82
2023/05/27 02:46:49;;;;;;;13.35;4.10;;;;;;;;;;6224838;22;20019;-83
2023/05/27 02:49:16;;;;;;;12.63;4.72;;;;;;;;;;6250441;22;20016;-83
2023/05/27 02:51:43;;;;;;;11.20;3.78;;;;;;;;;;6250175;22;20020;-81
2023/05/27 02:54:09;;;;;;;19.70;4.13;;;;;;;;;;6275696;22;20073;-84
2023/05/27 02:56:35;;;;;;;10.90;4.32;;;;;;;;;;6224901;22;20019;-83
2023/05/27 02:59:01;;;;;;;14.02;3.90;;;;;;;;;;6250279;22;20042;-82
2023/05/27 03:01:27;;;;;;;8.82;3.85;;;;;;;;;;6250387;22;20352;-83
2023/05/27 03:03:53;;;;;;;7.97;3.63;;;;;;;;;;6250110;22;20326;-84
2023/05/27 03:06:20;;;;;;;13.65;3.72;;;;;;;;;;6249933;22;20016;-84
2023/05/27 03:08:46;;;;;;;10.52;3.47;;;;;;;;;;6275735;22;20103;-84
2023/05/27 03:11:12;;;;;;;12.65;3.85;;;;;;;;;;6225133;22;20018;-85
2023/05/27 03:13:38;;;;;;;8.57;3.20;;;;;;;;;;6250068;22;20015;-82
2023/05/27 03:16:05;;;;;;;10.65;3.42;;;;;;;;;;6224877;22;20026;-84
2023/05/27 03:18:31;;;;;;;7.22;2.90;;;;;;;;;;6275444;22;20015;-84
2023/05/27 03:20:57;;;;;;;6.75;2.83;;;;;;;;;;6275088;22;20018;-81
2023/05/27 03:23:23;;;;;;;7.50;3.13;;;;;;;;;;6224761;22;20019;-83
2023/05/27 03:25:50;;;;;;;10.75;3.30;;;;;;;;;;6275368;22;20452;-84
2023/05/27 03:28:16;;;;;;;20.42;4.30;;;;;;;;;;6275444;22;20023;-85
2023/05/27 03:30:43;;;;;;;8.07;3.78;;;;;;;;;;6249985;22;20079;-84
2023/05/27 03:33:09;;;;;;;11.60;3.67;;;;;;;;;;6224832;22;20020;-84
2023/05/27 03:35:35;;;;;;;10.10;3.83;;;;;;;;;;6275562;22;20047;-83
2023/05/27 03:38:02;;;;;;;12.48;4.63;;;7.00;99.90;;;;;;6249993;22;20020;-84
2023/05/27 03:40:28;;;;;;;24.13;6.90;;;;;;;;;;6275217;22;20012;-82
2023/05/27 03:42:54;;;;;;;17.60;6.63;;;;;;;;;;6224676;22;20065;-83
2023/05/27 03:45:20;;;;;;;22.05;6.93;;;;;;;;;;6249609;22;20066;-83
2023/05/27 03:47:46;;;;;;;23.88;7.95;;;;;;;;;;6249974;22;20028;-85
2023/05/27 03:50:12;;;;;;;24.40;8.00;;;;;;;;;;6275305;22;20015;-84
2023/05/27 03:52:38;;;;;;;20.08;8.00;;;;;;;;;;6249749;22;20018;-84
2023/05/27 03:55:05;;;;;;;17.75;6.85;;;;;;;;;;6275291;22;20018;-83
2023/05/27 03:57:31;;;;;;;26.67;7.13;;;;;;;;;;6275107;22;20023;-83
2023/05/27 03:59:57;;;;;;;32.45;12.82;;;;;;;;;;6275183;22;20012;-83
2023/05/27 04:02:23;;;;;;;45.92;19.92;;;;;;;;;;6249570;22;20015;-83
2023/05/27 04:04:49;;;;;;;65.20;23.95;;;;;;;;;;6249483;22;20095;-83
2023/05/27 04:07:17;;;;;;;67.38;24.42;;;;;;;;;;6249775;22;20069;-83
2023/05/27 04:09:43;;;;;;;51.60;20.48;;;;;;;;;;6249551;22;20073;-82
2023/05/27 04:12:10;;;;;;;31.73;12.73;;;;;;;;;;6224503;22;20023;-83
2023/05/27 04:14:36;;;;;;;27.85;10.93;;;;;;;;;;6224853;22;20020;-83
2023/05/27 04:17:02;;;;;;;26.05;9.90;;;;;;;;;;6249442;22;20016;-82
2023/05/27 04:19:28;;;;;;;24.67;8.27;;;;;;;;;;6275077;22;20035;-83
2023/05/27 04:21:54;;;;;;;19.67;7.90;;;;;;;;;;6274993;22;20357;-83
2023/05/27 04:24:20;;;;;;;18.65;8.10;;;;;;;;;;6224304;22;20016;-83
2023/05/27 04:26:46;;;;;;;17.10;6.85;;;;;;;;;;6224450;22;20022;-83
2023/05/27 04:29:12;;;;;;;22.55;7.70;;;;;;;;;;6275052;22;20020;-83
2023/05/27 04:31:39;;;;;;;19.00;5.85;;;8.10;99.90;;;;;;6249418;22;20361;-83
2023/05/27 04:34:05;;;;;;;10.35;5.72;;;;;;;;;;6226282;22;20015;-82
2023/05/27 04:36:33;;;;;;;10.02;4.55;;;;;;;;;;6251651;22;20020;-83
2023/05/27 04:39:01;;;;;;;12.50;5.30;;;;;;;;;;6277180;22;20015;-83
2023/05/27 04:41:28;;;;;;;11.40;5.20;;;;;;;;;;6277237;22;20465;-83
2023/05/27 04:43:56;;;;;;;15.98;5.38;;;8.20;99.90;;;;;;6278614;22;20388;-82
2023/05/27 04:46:23;;;;;;;18.65;6.38;;;;;;;;;;6276793;22;20016;-82
2023/05/27 04:48:50;;;;;;;10.32;4.55;;;;;;;;;;6251789;22;20020;-82
2023/05/27 04:51:17;;;;;;;8.38;3.75;;;;;;;;;;6226583;22;20145;-83
2023/05/27 04:53:44;;;;;;;14.02;5.43;;;;;;;;;;6251796;22;20016;-82
2023/05/27 04:56:10;;;;;;;14.55;4.35;;;;;;;;;;6276783;22;20104;-83
2023/05/27 04:58:39;;;;;;;12.55;4.75;;;;;;;;;;6251429;22;20016;-82
2023/05/27 05:01:05;;;;;;;13.77;4.75;;;;;;;;;;6226776;22;20012;-83
2023/05/27 05:03:39;;;;;;;17.23;5.05;;;;;;;;;;6226275;22;20020;-83
2023/05/27 05:06:05;;;;;;;14.52;5.32;;;;;;;;;;6276875;22;20018;-84
2023/05/27 05:08:32;;;;;;;25.33;5.05;;;;;;;;;;6251574;22;20076;-83
2023/05/27 05:10:58;;;;;;;12.32;4.55;;;;;;;;;;6276829;22;20094;-84
2023/05/27 05:13:28;;;;;;;13.38;5.03;;;;;;;;;;6251282;22;20027;-83
2023/05/27 05:15:54;;;;;;;8.65;4.47;;;;;;;;;;6251127;22;20016;-83
2023/05/27 05:18:20;;;;;;;15.55;5.13;;;;;;;;;;6251173;22;20016;-83
2023/05/27 05:20:46;;;;;;;17.88;4.30;;;;;;;;;;6251301;22;20344;-84
2023/05/27 05:23:12;;;;;;;11.32;5.38;;;;;;;;;;6226203;22;20473;-84
2023/05/27 05:25:39;;;;;;;17.73;5.65;;;;;;;;;;6226138;22;20023;-84
2023/05/27 05:28:06;;;;;;;12.88;4.95;;;;;;;;;;6276723;22;20049;-83
2023/05/27 05:30:32;;;;;;;19.27;5.57;;;;;;;;;;6276598;22;20011;-83
2023/05/27 05:32:58;;;;;;;11.43;4.88;;;;;;;;;;6251079;22;20103;-83
2023/05/27 05:35:24;;;;;;;20.90;5.50;;;;;;;;;;6277080;22;20019;-83
2023/05/27 05:37:50;;;;;;;11.75;4.85;;;;;;;;;;6225831;22;20049;-83
2023/05/27 05:40:16;;;;;;;12.48;5.80;;;;;;;;;;6250968;22;20091;-83
2023/05/27 05:42:42;;;;;;;14.48;5.55;;;;;;;;;;6225747;22;20094;-83
2023/05/27 05:45:09;;;;;;;15.25;5.57;;;;;;;;;;6275828;22;20464;-83
2023/05/27 05:47:35;;;;;;;18.30;4.82;;;;;;;;;;6251058;22;20023;-83
2023/05/27 05:50:01;;;;;;;16.80;5.63;;;;;;;;;;6225753;22;20023;-84
2023/05/27 05:52:27;;;;;;;14.15;5.32;;;;;;;;;;6225806;22;20015;-83
2023/05/27 05:54:53;;;;;;;13.75;5.65;;;;;;;;;;6250835;22;20097;-85
2023/05/27 05:57:19;;;;;;;12.48;4.82;;;;;;;;;;6250537;22;20020;-83
2023/05/27 05:59:45;;;;;;;17.77;5.55;;;;;;;;;;6276386;22;20110;-83
2023/05/27 06:02:11;;;;;;;23.05;6.45;;;;;;;;;;6225593;22;20035;-83
2023/05/27 06:04:37;;;;;;;20.02;5.05;;;;;;;;;;6250820;22;20047;-84
2023/05/27 06:07:03;;;;;;;16.52;5.10;;;;;;;;;;6225787;22;20483;-84
2023/05/27 06:09:30;;;;;;;15.38;7.00;;;;;;;;;;6276710;22;20011;-83
2023/05/27 06:12:00;;;;;;;16.10;4.13;;;;;;;;;;6278844;22;20016;-82
2023/05/27 06:14:26;;;;;;;15.73;5.63;;;;;;;;;;6276857;22;20387;-82
2023/05/27 06:16:52;;;;;;;18.30;5.28;;;;;;;;;;6276786;22;20054;-84
2023/05/27 06:19:18;;;;;;;23.15;5.13;;;;;;;;;;6252834;22;20477;-85
2023/05/27 06:21:44;;;;;;;16.13;5.45;;;;;;;;;;6277215;22;20016;-82
2023/05/27 06:24:10;;;;;;;17.95;5.25;;;;;;;;;;6278561;22;20322;-85
2023/05/27 06:26:36;;;;;;;15.93;5.68;;;;;;;;;;6278241;22;20015;-84
2023/05/27 06:29:03;;;;;;;22.40;6.18;;;;;;;;;;6252302;22;20015;-84
2023/05/27 06:31:29;;;;;;;12.30;4.47;;;;;;;;;;6252668;22;20020;-84
2023/05/27 06:33:55;;;;;;;10.73;4.78;;;;;;;;;;6277949;22;20086;-84
2023/05/27 06:36:21;;;;;;;21.77;5.22;;;;;;;;;;6277345;22;20012;-84
2023/05/27 06:38:47;;;;;;;9.20;4.53;;;;;;;;;;6250272;22;20016;-84
2023/05/27 06:41:13;;;;;;;11.68;4.82;;;;;;;;;;6250528;22;20090;-84
2023/05/27 06:43:39;;;;;;;15.30;4.45;;;;;;;;;;6275895;22;20012;-84
2023/05/27 06:46:05;;;;;;;13.52;4.53;;;;;;;;;;6275701;22;20023;-84
2023/05/27 06:48:31;;;;;;;17.83;5.22;;;;;;;;;;6225181;22;20023;-84
2023/05/27 06:50:58;;;;;;;22.58;5.28;;;;;;;;;;6275985;22;20016;-84
2023/05/27 06:53:24;;;;;;;13.48;4.88;;;;;;;;;;6250504;22;20019;-84
2023/05/27 06:55:50;;;;;;;11.73;5.18;;;;;;;;;;6250040;22;20098;-84
2023/05/27 06:58:16;;;;;;;13.70;4.45;;;;;;;;;;6250180;22;20020;-83
2023/05/27 07:00:42;;;;;;;25.42;5.43;;;;;;;;;;6226129;22;20019;-84
2023/05/27 07:03:08;;;;;;;14.82;5.97;;;;;;;;;;6275510;22;20020;-83
2023/05/27 07:05:38;;;;;;;14.52;4.93;;;;;;;;;;6251148;22;20433;-84
2023/05/27 07:08:04;;;;;;;14.43;4.32;;;;;;;;;;6252139;22;20020;-90
2023/05/27 07:10:30;;;;;;;19.02;4.95;;;;;;;;;;6252945;22;20016;-90
2023/05/27 07:12:59;;;;;;;15.10;5.30;;;;;;;;;;6252306;22;20016;-89
2023/05/27 07:15:27;;;;;;;24.70;5.68;;;;;;;;;;6277549;22;20023;-94
2023/05/27 07:17:53;;;;;;;20.40;5.38;;;;;;;;;;6277789;22;20022;-92
2023/05/27 07:20:19;;;;;;;15.77;5.15;;;;;;;;;;6226346;22;20345;-82
2023/05/27 07:22:45;;;;;;;11.93;5.18;;;;;;;;;;6277348;22;20094;-84
2023/05/27 07:25:11;;;;;;;18.35;5.72;;;;;;;;;;6275441;22;20448;-83
2023/05/27 07:27:37;;;;;;;17.13;5.18;;;;;;;;;;6249776;22;20334;-83
2023/05/27 07:30:04;;;;;;;17.88;4.97;;;;;;;;;;6249776;22;20437;-84
2023/05/27 07:32:31;;;;;;;18.73;5.55;;;;;;;;;;6277163;22;20011;-84
2023/05/27 07:34:57;;;;;;;14.73;5.55;;;;;;;;;;6276646;22;20019;-83
2023/05/27 07:37:25;;;;;;;14.98;5.25;;;;;;;;;;6277129;22;20023;-83
2023/05/27 07:39:52;;;;;;;14.45;4.72;;;;;;;;;;6275161;22;20015;-83
2023/05/27 07:42:18;;;;;;;15.93;5.28;;;;;;;;;;6249655;22;20095;-83
2023/05/27 07:44:44;;;;;;;12.70;4.90;;;;;;;;;;6249547;22;20578;-84
2023/05/27 07:47:10;;;;;;;18.83;5.45;;;;;;;;;;6275401;22;20027;-83
2023/05/27 07:49:36;;;;;;;14.30;5.38;;;;;;;;;;6224703;22;20069;-84
2023/05/27 07:52:02;;;;;;;13.52;5.40;;;;;;;;;;6277146;22;20022;-83
2023/05/27 07:54:28;;;;;;;13.13;5.70;;;;;;;;;;6275216;22;20022;-83
2023/05/27 07:56:57;;;;;;;22.63;7.72;;;;;;;;;;6275830;22;20386;-84
2023/05/27 07:59:23;;;;;;;31.13;6.40;;;;;;;;;;6277139;22;20023;-86
2023/05/27 08:01:49;;;;;;;12.30;5.95;;;;;;;;;;6275214;22;20086;-84
2023/05/27 08:04:16;;;;;;;14.57;4.70;;;;;;;;;;6275341;22;20031;-84
2023/05/27 08:06:42;;;;;;;15.52;4.90;;;;;;;;;;6249970;22;20074;-84
2023/05/27 08:09:08;;;;;;;13.95;5.82;;;;;;;;;;6249523;22;20369;-84
2023/05/27 08:11:34;;;;;;;18.27;5.65;;;;;;;;;;6249431;22;20024;-83
2023/05/27 08:14:01;;;;;;;18.00;5.68;;;;;;;;;;6275662;22;20016;-81
2023/05/27 08:16:27;;;;;;;14.73;5.82;;;;;;;;;;6249880;22;20055;-83
2023/05/27 08:18:53;;;;;;;17.90;5.03;;;;;;;;;;6276641;22;20094;-82
2023/05/27 08:21:19;;;;;;;17.85;5.30;;;;;;;;;;6275163;22;20068;-82
2023/05/27 08:23:45;;;;;;;20.45;6.03;;;;;;;;;;6277058;22;20016;-83
2023/05/27 08:26:11;;;;;;;14.95;5.68;;;;;;;;;;6250192;22;20090;-83
2023/05/27 08:28:37;;;;;;;18.23;5.78;;;;;;;;;;6275185;22;20020;-82
2023/05/27 08:31:05;;;;;;;21.52;6.25;;;13.90;99.90;;;;;;6274945;22;20035;-83
2023/05/27 08:33:31;;;;;;;15.85;4.95;;;;;;;;;;6199377;22;20026;-82
2023/05/27 08:35:58;;;;;;;20.50;6.88;;;14.00;99.90;;;;;;6274685;22;20145;-82
2023/05/27 08:38:24;;;;;;;18.98;6.57;;;;;;;;;;6249817;22;20019;-82
2023/05/27 08:40:51;;;;;;;17.20;5.43;;;;;;;;;;6274880;22;20034;-82
2023/05/27 08:43:23;;;;;;;17.77;5.82;;;;;;;;;;6274951;22;20019;-82
2023/05/27 08:45:50;;;;;;;14.10;5.65;;;;;;;;;;6224168;22;20027;-82
2023/05/27 08:48:16;;;;;;;14.60;5.07;;;;;;;;;;6274853;22;20022;-82
2023/05/27 08:50:42;;;;;;;16.85;5.30;;;;;;;;;;6224216;22;20467;-82
2023/05/27 08:53:09;;;;;;;14.55;5.32;;;14.00;99.90;;;;;;6274953;22;20022;-82
2023/05/27 08:55:38;;;;;;;18.42;6.03;;;;;;;;;;6247999;22;20026;-82
2023/05/27 08:58:06;;;;;;;14.48;5.60;;;14.40;99.90;;;;;;6274610;22;20019;-82
2023/05/27 09:00:32;;;;;;;16.10;5.78;;;14.60;99.90;;;;;;6249254;22;20023;-83
2023/05/27 09:02:59;;;;;;;17.70;6.50;;;;;;;;;;6274342;22;20020;-83
2023/05/27 09:05:27;;;;;;;18.10;5.65;;;;;;;;;;6249220;22;20015;-82
2023/05/27 09:07:54;;;;;;;14.23;5.20;;;14.70;99.90;;;;;;6274775;22;20022;-83
2023/05/27 09:10:20;;;;;;;21.23;7.00;;;14.70;99.90;;;;;;6224007;22;20027;-82
2023/05/27 09:12:47;;;;;;;18.58;6.53;;;;;;;;;;6224067;22;20015;-82
2023/05/27 09:15:13;;;;;;;13.57;6.47;;;14.50;99.90;;;;;;6225348;22;20479;-86
2023/05/27 09:17:42;;;;;;;14.13;5.97;;;14.90;99.90;;;;;;6223993;22;20027;-83
2023/05/27 09:20:10;;;;;;;13.02;5.63;;;15.00;99.90;;;;;;6275828;22;20095;-84
2023/05/27 09:22:37;;;;;;;20.88;7.28;;;15.00;99.90;;;;;;6251117;22;20069;-83
2023/05/27 09:25:03;;;;;;;19.30;6.53;;;15.10;99.90;;;;;;6251033;22;20016;-84
2023/05/27 09:27:32;;;;;;;19.35;6.25;;;15.10;99.90;;;;;;6250500;22;20023;-85
2023/05/27 09:30:07;;;;;;;14.50;5.97;;;15.20;99.90;;;;;;6251268;22;20059;-84
2023/05/27 09:32:33;;;;;;;17.65;6.30;;;;;;;;;;6276597;22;20023;-83
2023/05/27 09:35:04;;;;;;;16.38;6.50;;;;;;;;;;6278770;22;20027;-83
2023/05/27 09:37:34;;;;;;;13.27;4.93;;;15.60;99.90;;;;;;6276726;22;20023;-84
2023/05/27 09:40:14;;;;;;;18.55;6.30;;;15.80;99.90;;;;;;6277408;22;20022;-84
2023/05/27 09:42:46;;;;;;;15.52;7.50;;;15.70;99.90;;;;;;6227742;22;20023;-84
2023/05/27 09:45:17;;;;;;;19.98;5.78;;;16.00;99.90;;;;;;6251580;22;20024;-84
2023/05/27 09:47:51;;;;;;;17.08;6.57;;;16.00;99.90;;;;;;6273403;22;20023;-84
2023/05/27 09:50:20;;;;;;;19.05;8.02;;;15.90;99.90;;;;;;6252395;22;20421;-84
2023/05/27 09:52:47;;;;;;;24.60;6.60;;;15.90;99.90;;;;;;6277994;22;20020;-85
2023/05/27 09:55:14;;;;;;;18.05;6.40;;;16.20;99.90;;;;;;6252813;22;20406;-84
2023/05/27 09:57:41;;;;;;;11.60;5.60;;;16.10;99.90;;;;;;6253736;22;20020;-84
2023/05/27 10:00:11;;;;;;;13.70;5.95;;;16.10;99.90;;;;;;6279744;22;20015;-84
2023/05/27 10:02:42;;;;;;;17.90;6.05;;;16.40;99.90;;;;;;6229388;22;20015;-84
2023/05/27 10:05:10;;;;;;;13.02;5.60;;;16.40;99.90;;;;;;6280218;22;20033;-84
2023/05/27 10:07:43;;;;;;;12.18;5.78;;;16.50;99.90;;;;;;6254781;22;20015;-83
2023/05/27 10:10:11;;;;;;;18.85;7.22;;;16.50;99.90;;;;;;6255244;22;20023;-82
2023/05/27 10:12:46;;;;;;;18.80;6.13;;;16.60;99.90;;;;;;6231266;22;20026;-82
2023/05/27 10:15:24;;;;;;;18.20;5.57;;;;;;;;;;6253060;22;20012;-81
2023/05/27 10:17:58;;;;;;;16.27;5.82;;;16.80;99.90;;;;;;6276292;22;20015;-83
2023/05/27 10:20:37;;;;;;;16.65;5.95;;;16.80;99.90;;;;;;6275922;22;20012;-83
2023/05/27 10:23:15;;;;;;;23.40;6.20;;;16.80;99.90;;;;;;6250782;22;20020;-83
2023/05/27 10:25:47;;;;;;;20.55;6.65;;;16.90;99.90;;;;;;6250873;22;20023;-82
2023/05/27 10:28:27;;;;;;;13.20;5.82;;;17.10;99.90;;;;;;6276543;22;20016;-83
2023/05/27 10:31:02;;;;;;;18.73;6.30;;;16.90;99.90;;;;;;6276338;22;20015;-83
2023/05/27 10:33:30;;;;;;;12.23;5.72;;;17.10;99.90;;;;;;6251015;22;20015;-83
2023/05/27 10:35:56;;;;;;;25.27;7.55;;;;;;;;;;6251108;22;20078;-84
2023/05/27 10:38:23;;;;;;;15.32;6.07;;;17.20;99.90;;;;;;6250797;22;20015;-83
2023/05/27 10:41:00;;;;;;;12.95;5.88;;;17.00;99.90;;;;;;6276354;22;20086;-83
2023/05/27 10:43:29;;;;;;;21.17;6.50;;;17.10;99.90;;;;;;6250866;22;20016;-83
2023/05/27 10:46:08;;;;;;;19.50;5.88;;;17.30;99.90;;;;;;6276576;22;20069;-83
2023/05/27 10:48:35;;;;;;;11.20;6.22;;;;;;;;;;6276120;22;20061;-83
2023/05/27 10:51:01;;;;;;;14.30;5.50;;;17.50;99.90;;;;;;6250593;22;20047;-83
2023/05/27 10:53:28;;;;;;;15.02;6.22;;;17.30;99.90;;;;;;6249937;22;20441;-82
2023/05/27 10:55:57;;;;;;;13.57;6.53;;;17.60;99.90;;;;;;6275812;22;20349;-83
2023/05/27 10:58:23;;;;;;;18.80;7.35;;;;;;;;;;6250802;22;20055;-84
2023/05/27 11:00:51;;;;;;;17.92;6.63;;;17.80;99.90;;;;;;6275888;22;20133;-83
2023/05/27 11:03:30;;;;;;;14.23;5.80;;;17.90;99.90;;;;;;6275735;22;20031;-83
2023/05/27 11:06:06;;;;;;;15.88;5.40;;;17.60;99.90;;;;;;6250160;22;20018;-83
2023/05/27 11:08:37;;;;;;;13.27;5.70;;;17.90;99.90;;;;;;6275837;22;20026;-83
2023/05/27 11:11:10;;;;;;;19.52;5.80;;;18.00;99.90;;;;;;6225819;22;20022;-83
2023/05/27 11:13:42;;;;;;;17.38;6.53;;;18.00;99.90;;;;;;6249988;22;20019;-83
2023/05/27 11:16:09;;;;;;;13.65;5.85;;;18.30;99.90;;;;;;6249405;22;20018;-84
2023/05/27 11:18:40;;;;;;;18.33;6.47;;;18.40;99.90;;;;;;6250100;22;20475;-83
2023/05/27 11:21:11;;;;;;;14.73;5.90;;;18.30;99.90;;;;;;6275109;22;20073;-83
2023/05/27 11:23:45;;;;;;;22.20;6.82;;;18.30;99.90;;;;;;6275278;22;20465;-83
2023/05/27 11:26:22;;;;;;;13.95;5.80;;;18.20;99.90;;;;;;6275451;22;20011;-85
2023/05/27 11:28:53;;;;;;;13.73;5.72;;;18.40;99.90;;;;;;6249927;22;20326;-83
2023/05/27 11:31:27;;;;;;;14.32;6.03;;;18.40;99.90;;;;;;6249642;22;20047;-84
2023/05/27 11:33:53;;;;;;;15.73;6.22;;;18.30;99.90;;;;;;6275316;22;20045;-83
2023/05/27 11:36:21;;;;;;;21.48;5.68;;;;;;;;;;6275225;22;20472;-83
2023/05/27 11:38:57;;;;;;;15.60;6.20;;;18.50;99.90;;;;;;6250161;22;20016;-84
2023/05/27 11:41:28;;;;;;;12.27;5.22;;;18.50;99.90;;;;;;6275532;22;20342;-84
2023/05/27 11:44:08;;;;;;;17.20;5.93;;;18.70;99.90;;;;;;6249481;22;20023;-83
2023/05/27 11:46:35;;;;;;;17.70;6.18;;;18.80;99.90;;;;;;6249595;22;20012;-84
2023/05/27 11:49:06;;;;;;;11.00;5.90;;;18.70;99.90;;;;;;6249671;22;20393;-84
2023/05/27 11:51:37;;;;;;;10.32;4.75;;;18.90;99.90;;;;;;6249783;22;20012;-83
2023/05/27 11:54:03;;;;;;;13.75;5.38;;;;;;;;;;6224391;22;20019;-82
2023/05/27 11:56:29;;;;;;;11.82;5.63;;;;;;;;;;6249430;22;20094;-82
2023/05/27 11:58:56;;;;;;;18.52;6.90;;;;;;;;;;6275168;22;20345;-82
2023/05/27 12:01:22;;;;;;;13.32;6.10;;;19.00;99.90;;;;;;6224448;22;20453;-82
2023/05/27 12:03:48;;;;;;;13.93;6.80;;;;;;;;;;6249475;22;20016;-82
2023/05/27 12:06:14;;;;;;;18.20;6.28;;;;;;;;;;6249381;22;20480;-82
2023/05/27 12:08:41;;;;;;;12.45;6.40;;;19.30;99.90;;;;;;6249647;22;20061;-82
2023/05/27 12:11:07;;;;;;;12.70;6.07;;;;;;;;;;6249523;22;20016;-83
2023/05/27 12:13:34;;;;;;;17.00;6.35;;;;;;;;;;6250952;22;20012;-84
2023/05/27 12:16:00;;;;;;;15.50;6.35;;;19.30;99.90;;;;;;6274967;22;20077;-84
2023/05/27 12:18:26;;;;;;;14.98;6.65;;;;;;;;;;6274915;22;20027;-83
2023/05/27 12:20:52;;;;;;;18.48;6.25;;;;;;;;;;6249541;22;20043;-84
2023/05/27 12:23:18;;;;;;;13.90;5.38;;;19.60;99.90;;;;;;6250229;22;20015;-84
2023/05/27 12:25:43;;;;;;;15.50;7.00;;;19.70;99.90;;;;;;6224248;22;20011;-85
2023/05/27 12:28:10;;;;;;;15.63;5.72;;;19.90;99.90;;;;;;6249561;22;20101;-83
2023/05/27 12:30:36;;;;;;;10.15;6.18;;;19.90;99.90;;;;;;6224177;22;20012;-84
2023/05/27 12:33:06;;;;;;;12.60;5.60;;;19.90;99.90;;;;;;6249371;22;20582;-84
2023/05/27 12:35:33;;;;;;;14.75;6.68;;;20.00;99.90;;;;;;6274914;22;20087;-83
2023/05/27 12:37:59;;;;;;;16.50;5.88;;;;;;;;;;6249311;22;20016;-84
2023/05/27 12:40:26;;;;;;;15.50;5.60;;;20.10;99.90;;;;;;6224516;22;20023;-85
2023/05/27 12:42:52;;;;;;;12.23;5.20;;;20.00;99.90;;;;;;6224314;22;20069;-84
2023/05/27 12:45:21;;;;;;;11.38;5.78;;;;;;;;;;6274613;22;20368;-83
2023/05/27 12:47:48;;;;;;;12.75;6.28;;;20.40;99.90;;;;;;6249697;22;20024;-83
2023/05/27 12:50:14;;;;;;;12.48;6.60;;;20.30;99.90;;;;;;6249885;22;20506;-85
2023/05/27 12:52:46;;;;;;;12.77;6.25;;;20.30;99.90;;;;;;6249609;22;20356;-84
2023/05/27 12:55:12;;;;;;;11.95;5.55;;;;;;;;;;6227384;22;20044;-85
2023/05/27 12:57:37;;;;;;;12.82;5.85;;;20.50;99.90;;;;;;6251365;22;20023;-83
2023/05/27 13:00:04;;;;;;;19.08;6.20;;;20.80;99.90;;;;;;6276955;22;20016;-84
2023/05/27 13:02:30;;;;;;;9.00;5.82;;;20.50;99.90;;;;;;6226038;22;20022;-91
2023/05/27 13:04:56;;;;;;;17.63;5.22;;;20.80;99.90;;;;;;6226377;22;20027;-87
2023/05/27 13:07:22;;;;;;;32.35;6.95;;;20.80;99.90;;;;;;6251385;22;20015;-88
2023/05/27 13:09:48;;;;;;;22.05;6.68;;;20.80;99.90;;;;;;6251474;22;20055;-88
2023/05/27 13:12:13;;;;;;;18.70;7.47;;;21.00;99.90;;;;;;6225957;22;20408;-83
2023/05/27 13:14:39;;;;;;;17.73;6.38;;;;;;;;;;6225945;22;20019;-84
2023/05/27 13:17:06;;;;;;;13.40;6.00;;;;;;;;;;6251264;22;20578;-80
2023/05/27 13:19:31;;;;;;;17.77;6.15;;;20.90;99.90;;;;;;6251052;22;20012;-77
2023/05/27 13:21:58;;;;;;;16.42;6.15;;;21.10;99.90;;;;;;6276764;22;20022;-84
2023/05/27 13:24:23;;;;;;;12.93;5.47;;;21.60;99.90;;;;;;6226608;22;20016;-84
2023/05/27 13:26:50;;;;;;;19.90;5.78;;;21.50;99.90;;;;;;6226255;22;20016;-86
2023/05/27 13:29:16;;;;;;;12.93;5.03;;;21.40;99.90;;;;;;6250949;22;20099;-85
2023/05/27 13:31:42;;;;;;;21.45;5.45;;;21.40;99.90;;;;;;6251168;22;20023;-84
2023/05/27 13:34:07;;;;;;;14.07;5.28;;;21.50;99.90;;;;;;6250857;22;20029;-84
2023/05/27 13:36:34;;;;;;;11.77;4.72;;;21.70;99.90;;;;;;6250977;22;20012;-90
2023/05/27 13:38:59;;;;;;;13.13;5.22;;;21.80;99.90;;;;;;6251673;22;20027;-87
2023/05/27 13:41:26;;;;;;;12.52;5.60;;;;;;;;;;6226731;22;20459;-84
2023/05/27 13:43:52;;;;;;;18.80;5.43;;;;;;;;;;6278107;22;20053;-87
2023/05/27 13:46:18;;;;;;;14.50;5.18;;;;;;;;;;6251024;22;20054;-88
2023/05/27 13:48:45;;;;;;;15.75;5.55;;;;;;;;;;6279097;22;20015;-87
2023/05/27 13:51:13;;;;;;;13.30;5.70;;;22.10;99.90;;;;;;6251809;22;20020;-88
2023/05/27 13:53:38;;;;;;;14.13;5.63;;;22.30;99.90;;;;;;6278381;22;20019;-81